Time;durP1;ratioP1;P1;durP2;ratioP2;P2;SDS_P1;SDS_P2;PMS_P1;PMS_P2;Temp;Humidity;BMP_temperature;BMP_pressure;BME280_temperature;BME280_humidity;BME280_pressure;Samples;Min_cycle;Max_cycle;Signal;HPM_P1;HPM_P2
2021/01/26 00:02:23;;;;;;;7.67;3.27;;;3.80;99.90;;;1.54;100.00;98757.16;5054955;28;20210;-80
2021/01/26 00:05:11;;;;;;;7.00;3.60;;;3.80;99.90;;;1.54;100.00;98762.25;5058545;28;20207;-79
2021/01/26 00:07:57;;;;;;;8.63;3.93;;;3.80;99.90;;;1.55;100.00;98761.38;5059191;28;20729;-78
2021/01/26 00:10:46;;;;;;;8.47;4.00;;;3.70;99.90;;;1.30;100.00;98776.38;5058608;28;20227;-78
2021/01/26 00:13:32;;;;;;;8.03;3.30;;;3.70;99.90;;;1.31;100.00;98803.50;5067204;28;20202;-79
2021/01/26 00:16:17;;;;;;;5.53;4.10;;;3.70;99.90;;;1.46;100.00;98776.88;5058283;28;20246;-78
2021/01/26 00:19:06;;;;;;;8.50;3.63;;;3.70;99.90;;;1.62;100.00;98781.63;5050219;28;20214;-79
2021/01/26 00:21:52;;;;;;;8.80;4.03;;;3.60;99.90;;;1.91;100.00;98771.59;5060890;28;20256;-80
2021/01/26 00:24:37;;;;;;;9.07;3.83;;;3.60;99.90;;;2.06;100.00;98779.75;5052972;28;20580;-79
2021/01/26 00:27:23;;;;;;;13.23;4.97;;;3.60;99.90;;;1.91;100.00;98788.63;5059071;28;20250;-80
2021/01/26 00:30:16;;;;;;;7.97;5.30;;;3.60;99.90;;;1.91;100.00;98792.00;5062249;28;20238;-80
2021/01/26 00:33:07;;;;;;;11.97;5.33;;;3.60;99.90;;;1.92;100.00;98810.69;5060690;28;20674;-80
2021/01/26 00:35:52;;;;;;;12.00;5.57;;;3.60;99.90;;;1.95;100.00;98830.16;5059493;28;20210;-80
2021/01/26 00:38:38;;;;;;;12.83;7.03;;;3.70;99.90;;;1.94;100.00;98819.13;5047397;28;20258;-79
2021/01/26 00:41:23;;;;;;;11.63;6.30;;;3.70;99.90;;;1.89;100.00;98824.34;5042538;28;20299;-80
2021/01/26 00:44:09;;;;;;;10.27;6.90;;;3.70;99.90;;;1.87;100.00;98809.94;5048814;28;20573;-80
2021/01/26 00:46:54;;;;;;;6.23;4.67;;;3.80;99.90;;;1.86;100.00;98831.22;5051886;28;20617;-80
2021/01/26 00:49:39;;;;;;;19.87;6.33;;;3.80;99.90;;;1.84;100.00;98835.50;5059085;28;20592;-79
2021/01/26 00:52:25;;;;;;;14.53;6.13;;;3.80;99.90;;;1.70;100.00;98846.03;5053548;28;20698;-79
2021/01/26 00:55:12;;;;;;;11.40;5.73;;;3.80;99.90;;;1.66;100.00;98836.75;5050529;28;20246;-79
2021/01/26 00:57:57;;;;;;;12.87;6.10;;;3.80;99.90;;;1.70;100.00;98830.72;5055137;28;20714;-79
2021/01/26 01:00:42;;;;;;;13.83;7.13;;;3.80;99.90;;;1.81;100.00;98835.59;5048737;28;20230;-79
2021/01/26 01:03:27;;;;;;;15.73;7.17;;;3.90;99.90;;;1.92;100.00;98841.28;5060899;28;20281;-78
2021/01/26 01:06:13;;;;;;;16.43;7.37;;;3.80;99.90;;;1.87;100.00;98848.19;5057702;28;20237;-79
2021/01/26 01:08:58;;;;;;;13.40;7.00;;;3.80;99.90;;;2.03;100.00;98846.13;5059730;28;20202;-80
2021/01/26 01:11:44;;;;;;;16.00;6.70;;;3.80;99.90;;;1.85;100.00;98849.94;5060613;28;20218;-81
2021/01/26 01:14:29;;;;;;;15.17;7.03;;;3.80;99.90;;;1.85;100.00;98848.22;5060898;28;20217;-79
2021/01/26 01:17:14;;;;;;;16.00;8.07;;;3.80;99.90;;;2.04;100.00;98838.47;5058296;28;20716;-80
2021/01/26 01:19:59;;;;;;;14.10;6.47;;;3.80;99.90;;;2.12;100.00;98852.75;5055935;28;20283;-79
2021/01/26 01:22:44;;;;;;;25.57;8.57;;;3.80;99.90;;;2.23;100.00;98849.06;5051955;28;20212;-77
2021/01/26 01:25:30;;;;;;;20.00;8.40;;;3.90;99.90;;;2.37;100.00;98855.56;5058561;28;20497;-79
2021/01/26 01:28:15;;;;;;;20.83;8.50;;;3.90;99.90;;;2.26;100.00;98877.06;5053702;28;20239;-78
2021/01/26 01:31:01;;;;;;;19.03;6.63;;;3.90;99.90;;;2.19;100.00;98907.84;5054624;28;20233;-80
2021/01/26 01:33:46;;;;;;;19.27;8.30;;;3.90;99.90;;;2.24;100.00;98903.47;5055326;28;20253;-80
2021/01/26 01:36:31;;;;;;;25.40;7.77;;;4.00;99.90;;;2.23;100.00;98917.09;5051061;28;20207;-79
2021/01/26 01:39:18;;;;;;;32.57;8.37;;;4.00;99.90;;;2.14;100.00;98928.34;5047172;28;20262;-80
2021/01/26 01:42:07;;;;;;;19.30;7.47;;;4.00;99.90;;;1.95;100.00;98945.75;5052309;28;20198;-79
2021/01/26 01:44:53;;;;;;;15.03;6.53;;;4.00;99.90;;;1.87;100.00;98955.25;5049964;28;20540;-79
2021/01/26 01:47:45;;;;;;;17.07;6.53;;;4.00;99.90;;;1.86;100.00;98956.13;5058739;28;20230;-78
2021/01/26 01:50:36;;;;;;;11.40;5.33;;;4.00;99.90;;;1.74;100.00;98965.72;5053715;28;20281;-80
2021/01/26 01:53:26;;;;;;;25.70;6.63;;;4.00;99.90;;;1.62;100.00;98970.19;5058186;28;20255;-78
2021/01/26 01:56:19;;;;;;;20.43;5.50;;;4.00;99.90;;;1.92;100.00;98959.41;5046930;28;20298;-80
2021/01/26 01:59:11;;;;;;;20.97;6.20;;;3.90;99.90;;;1.87;100.00;98963.75;5053214;28;20222;-79
2021/01/26 02:01:58;;;;;;;17.83;6.83;;;3.90;99.90;;;1.86;100.00;98971.41;5061440;28;20281;-79
2021/01/26 02:04:44;;;;;;;21.20;6.63;;;3.90;99.90;;;1.73;100.00;98966.56;5048232;28;20232;-79
2021/01/26 02:07:32;;;;;;;23.00;6.43;;;3.90;99.90;;;1.73;100.00;98984.41;5063864;28;20210;-79
2021/01/26 02:10:17;;;;;;;16.87;6.00;;;3.90;99.90;;;1.68;100.00;99006.63;5063107;28;20226;-78
2021/01/26 02:13:02;;;;;;;12.60;6.13;;;3.90;99.90;;;1.64;100.00;98999.91;5079945;28;20234;-78
2021/01/26 02:15:56;;;;;;;19.50;6.27;;;3.80;99.90;;;1.60;100.00;98998.25;5079972;28;20219;-77
2021/01/26 02:19:08;;;;;;;13.23;5.50;;;3.80;99.90;;;1.62;100.00;99005.88;5078246;28;20245;-77
2021/01/26 02:22:56;;;;;;;16.67;4.83;;;3.80;99.90;;;1.66;100.00;98993.03;5050575;28;20223;-80
2021/01/26 02:26:28;;;;;;;13.90;4.43;;;3.70;99.90;;;1.83;100.00;98991.88;5021780;28;20237;-80
2021/01/26 02:29:21;;;;;;;9.57;3.93;;;3.80;99.90;;;1.82;100.00;98998.69;5058324;28;20249;-80
2021/01/26 02:32:26;;;;;;;13.33;4.60;;;3.70;99.90;;;1.76;100.00;99006.47;5065356;28;20618;-80
2021/01/26 02:35:37;;;;;;;11.33;3.07;;;3.70;99.90;;;1.68;100.00;99016.81;5064138;28;20725;-80
2021/01/26 02:39:16;;;;;;;13.33;4.70;;;3.60;99.90;;;1.60;100.00;99016.09;5057605;28;20265;-81
2021/01/26 02:42:40;;;;;;;11.33;3.27;;;3.60;99.90;;;1.62;100.00;99018.63;5050896;28;20207;-80
2021/01/26 02:45:34;;;;;;;12.63;3.40;;;3.60;99.90;;;1.58;100.00;99030.59;5058072;28;20238;-79
2021/01/26 02:48:55;;;;;;;12.50;3.37;;;3.50;99.90;;;1.57;100.00;99049.28;5050545;28;20577;-79
2021/01/26 02:51:54;;;;;;;17.07;4.07;;;3.50;99.90;;;1.59;100.00;99050.09;5060254;28;20238;-81
2021/01/26 02:54:52;;;;;;;14.00;4.13;;;3.50;99.90;;;1.45;100.00;99070.72;5057406;28;20290;-80
2021/01/26 02:57:56;;;;;;;14.13;4.40;;;3.50;99.90;;;1.60;100.00;99076.44;5075362;22;20227;-82
2021/01/26 03:00:42;;;;;;;17.77;3.83;;;3.40;99.90;;;1.72;100.00;99071.94;5044585;28;20246;-83
2021/01/26 03:03:35;;;;;;;14.07;3.70;;;3.40;99.90;;;1.47;100.00;99083.44;5037197;28;20204;-84
2021/01/26 03:06:26;;;;;;;8.03;3.67;;;3.50;99.90;;;1.50;100.00;99094.41;5042106;28;20226;-83
2021/01/26 03:09:19;;;;;;;10.53;2.90;;;3.50;99.90;;;1.43;100.00;99092.00;5037062;28;20227;-82
2021/01/26 03:12:14;;;;;;;6.47;2.20;;;3.40;99.90;;;1.33;100.00;99102.34;5026134;28;20204;-83
2021/01/26 03:15:10;;;;;;;5.50;2.20;;;3.40;99.90;;;1.28;100.00;99113.47;5039269;28;20239;-81
2021/01/26 03:18:06;;;;;;;4.90;1.70;;;3.40;99.90;;;1.17;100.00;99109.38;5050894;28;20280;-81
2021/01/26 03:20:57;;;;;;;8.23;2.30;;;3.50;99.90;;;1.22;100.00;99109.28;5051770;28;20223;-80
2021/01/26 03:23:47;;;;;;;5.33;2.07;;;3.30;99.90;;;1.32;100.00;99100.66;5052472;28;20191;-83
2021/01/26 03:26:35;;;;;;;6.63;2.00;;;3.30;99.90;;;1.24;100.00;99107.59;5050015;28;20230;-82
2021/01/26 03:29:30;;;;;;;8.43;2.40;;;3.20;99.90;;;1.15;100.00;99113.66;5054093;28;20207;-82
2021/01/26 03:32:26;;;;;;;8.67;2.67;;;3.20;99.90;;;1.29;100.00;99121.06;5049356;28;20208;-80
2021/01/26 03:35:14;;;;;;;4.03;2.27;;;3.20;99.90;;;1.70;100.00;99117.03;5051730;28;20188;-82
2021/01/26 03:38:10;;;;;;;6.40;2.60;;;3.20;99.90;;;1.72;100.00;99107.63;5047867;28;20263;-82
2021/01/26 03:41:00;;;;;;;9.20;2.80;;;3.20;99.90;;;1.55;100.00;99112.16;5055879;28;20264;-80
2021/01/26 03:43:46;;;;;;;9.30;3.03;;;3.20;99.90;;;1.55;100.00;99113.03;5055989;28;20238;-82
2021/01/26 03:46:54;;;;;;;4.60;2.37;;;3.20;99.90;;;1.44;100.00;99120.00;5052314;28;20262;-82
2021/01/26 03:50:39;;;;;;;11.23;2.90;;;3.20;99.90;;;1.37;100.00;99126.03;5051817;28;20225;-80
2021/01/26 03:54:06;;;;;;;8.90;2.70;;;3.20;99.90;;;1.32;100.00;99127.84;4967346;28;20301;-83
2021/01/26 03:57:27;;;;;;;8.67;3.10;;;3.20;99.90;;;1.32;100.00;99143.13;4981098;28;20197;-83
2021/01/26 04:00:27;;;;;;;9.03;3.00;;;3.20;99.90;;;1.50;100.00;99139.44;5050502;28;20191;-85
2021/01/26 04:03:33;;;;;;;11.50;3.07;;;3.10;99.90;;;1.62;100.00;99129.03;5053167;28;20195;-84
2021/01/26 04:06:32;;;;;;;6.97;2.60;;;3.10;99.90;;;1.56;100.00;99142.72;5053509;28;20251;-81
2021/01/26 04:09:24;;;;;;;10.53;4.00;;;3.10;99.90;;;1.61;100.00;99132.47;5050142;28;20223;-83
2021/01/26 04:12:16;;;;;;;20.53;3.93;;;3.20;99.90;;;1.52;100.00;99137.69;5054328;28;20216;-85
2021/01/26 04:15:11;;;;;;;19.97;4.03;;;3.10;99.90;;;1.53;100.00;99144.47;5048114;28;20211;-82
2021/01/26 04:17:57;;;;;;;13.50;4.10;;;3.10;99.90;;;1.81;100.00;99154.22;5043865;28;20286;-82
2021/01/26 04:20:42;;;;;;;9.20;3.40;;;3.10;99.90;;;1.94;100.00;99148.06;5041796;28;20265;-81
2021/01/26 04:23:29;;;;;;;9.93;3.80;;;3.10;99.90;;;1.85;100.00;99155.88;5043177;28;20227;-81
2021/01/26 04:26:18;;;;;;;10.10;2.77;;;3.10;99.90;;;2.07;100.00;99146.13;5039437;28;20208;-82
2021/01/26 04:29:06;;;;;;;6.80;3.07;;;3.20;99.90;;;2.27;100.00;99143.19;5040410;28;20335;-83
2021/01/26 04:31:52;;;;;;;18.33;3.67;;;3.20;99.90;;;2.35;100.00;99149.00;5041057;28;20789;-82
2021/01/26 04:34:37;;;;;;;6.27;3.13;;;3.20;99.90;;;2.40;100.00;99149.75;5041209;28;20279;-82
2021/01/26 04:37:22;;;;;;;11.10;3.17;;;3.30;99.90;;;2.49;100.00;99158.09;5040805;28;20311;-83
2021/01/26 04:40:11;;;;;;;9.57;3.27;;;3.30;99.90;;;2.54;100.00;99149.50;5041968;28;20238;-83
2021/01/26 04:43:07;;;;;;;13.17;3.33;;;3.40;99.90;;;2.54;100.00;99176.72;5041720;28;20268;-82
2021/01/26 04:46:04;;;;;;;14.53;3.40;;;3.40;99.90;;;2.44;100.00;99182.00;5037509;28;20266;-82
2021/01/26 04:49:02;;;;;;;12.70;3.77;;;3.50;99.90;;;2.15;100.00;99199.56;5042761;28;20231;-83
2021/01/26 04:52:00;;;;;;;11.67;3.73;;;3.50;99.90;;;1.98;100.00;99198.13;5043146;28;20199;-81
2021/01/26 04:55:13;;;;;;;12.77;3.47;;;3.60;99.90;;;2.03;100.00;99201.44;5040644;28;20245;-83
2021/01/26 04:58:34;;;;;;;15.37;4.10;;;3.60;99.90;;;1.95;100.00;99217.72;5040145;28;20358;-81
2021/01/26 05:01:40;;;;;;;12.70;4.17;;;3.60;99.90;;;2.08;100.00;99222.63;5032557;28;20208;-82
2021/01/26 05:04:36;;;;;;;17.07;4.90;;;3.60;99.90;;;2.31;100.00;99213.72;5036719;28;20219;-82
2021/01/26 05:07:28;;;;;;;18.63;5.07;;;3.60;99.90;;;2.41;100.00;99207.56;5030458;28;20257;-81
2021/01/26 05:10:24;;;;;;;13.87;4.70;;;3.60;99.90;;;2.38;100.00;99207.63;5027682;28;20267;-82
2021/01/26 05:13:17;;;;;;;13.43;4.00;;;3.60;99.90;;;2.41;100.00;99215.22;5036909;28;20284;-82
2021/01/26 05:16:10;;;;;;;10.77;4.20;;;3.70;99.90;;;2.58;100.00;99214.06;5036471;28;20211;-81
2021/01/26 05:19:04;;;;;;;16.40;4.57;;;3.70;99.90;;;2.38;100.00;99227.22;5035885;28;20303;-82
2021/01/26 05:22:04;;;;;;;18.37;4.27;;;3.80;99.90;;;2.06;100.00;99237.09;5046737;28;20199;-84
2021/01/26 05:25:02;;;;;;;8.53;2.97;;;3.90;99.90;;;2.02;100.00;99243.13;5030635;28;20199;-81
2021/01/26 05:27:48;;;;;;;12.53;3.70;;;3.80;99.90;;;2.08;100.00;99245.56;5033929;28;20246;-83
2021/01/26 05:30:37;;;;;;;13.23;3.30;;;3.80;99.90;;;2.33;100.00;99239.19;5035741;28;20203;-83
2021/01/26 05:33:24;;;;;;;11.60;3.43;;;3.80;99.90;;;2.37;100.00;99246.78;5039201;28;20617;-83
2021/01/26 05:36:11;;;;;;;10.50;3.23;;;3.80;99.90;;;2.41;100.00;99278.19;5038240;28;20203;-82
2021/01/26 05:38:57;;;;;;;8.07;3.20;;;3.80;99.90;;;2.59;100.00;99290.63;5037223;28;20253;-82
2021/01/26 05:41:43;;;;;;;7.17;2.90;;;3.80;99.90;;;2.55;100.00;99301.75;5040743;28;20249;-82
2021/01/26 05:44:28;;;;;;;9.97;2.90;;;3.80;99.90;;;2.73;100.00;99300.59;5040509;28;20250;-84
2021/01/26 05:47:29;;;;;;;12.57;2.90;;;3.80;99.90;;;2.83;100.00;99310.63;5037729;28;20282;-83
2021/01/26 05:50:25;;;;;;;10.40;2.70;;;3.90;99.90;;;2.79;100.00;99325.16;5036867;28;20207;-83
2021/01/26 05:53:19;;;;;;;7.87;2.60;;;3.90;99.90;;;2.57;100.00;99332.34;5039713;28;20690;-84
2021/01/26 05:56:10;;;;;;;4.07;1.97;;;3.90;99.90;;;2.45;100.00;99339.38;5040397;28;20549;-83
2021/01/26 05:58:56;;;;;;;12.87;2.90;;;4.00;99.90;;;2.37;100.00;99355.66;5042604;28;20280;-81
2021/01/26 06:01:41;;;;;;;12.70;2.93;;;4.00;99.90;;;2.32;100.00;99365.09;5041854;28;20576;-82
2021/01/26 06:04:30;;;;;;;10.40;3.00;;;4.10;99.90;;;2.26;100.00;99373.69;5037308;28;20204;-82
2021/01/26 06:07:20;;;;;;;8.13;2.60;;;4.10;99.90;;;2.20;100.00;99378.88;5040378;28;20272;-82
2021/01/26 06:10:19;;;;;;;13.80;3.53;;;4.10;99.90;;;2.17;100.00;99382.34;5037217;28;20203;-82
2021/01/26 06:13:05;;;;;;;8.53;2.70;;;4.10;99.90;;;1.89;100.00;99397.16;5035625;28;20230;-81
2021/01/26 06:16:11;;;;;;;11.57;3.40;;;4.00;99.90;;;1.76;100.00;99406.69;5030747;28;20257;-82
2021/01/26 06:19:01;;;;;;;15.77;3.50;;;4.20;99.90;;;2.06;100.00;99410.53;5042205;28;20584;-82
2021/01/26 06:21:50;;;;;;;7.70;2.90;;;4.20;99.90;;;2.14;100.00;99410.44;5038401;28;20206;-82
2021/01/26 06:24:37;;;;;;;11.47;4.07;;;4.20;99.90;;;2.18;100.00;99416.31;5042900;28;20208;-81
2021/01/26 06:27:50;;;;;;;8.83;3.80;;;4.20;99.90;;;2.12;100.00;99427.44;5043306;28;20251;-82
2021/01/26 06:30:53;;;;;;;8.83;3.00;;;4.20;99.90;;;2.14;100.00;99435.94;5038072;28;20199;-82
2021/01/26 06:34:08;;;;;;;13.60;4.27;;;4.20;99.90;;;2.20;100.00;99442.66;5043967;28;20211;-82
2021/01/26 06:37:44;;;;;;;14.80;4.37;;;4.20;99.90;;;2.19;100.00;99441.81;5039522;28;20235;-82
2021/01/26 06:41:07;;;;;;;15.00;4.03;;;4.20;99.90;;;2.18;100.00;99450.31;5027394;28;20661;-81
2021/01/26 06:44:21;;;;;;;13.60;3.83;;;4.20;99.90;;;2.12;100.00;99449.56;5037004;28;20393;-81
2021/01/26 06:47:56;;;;;;;14.10;3.73;;;4.20;99.90;;;2.21;100.00;99450.28;5039896;28;20200;-82
2021/01/26 06:51:07;;;;;;;21.13;4.13;;;4.20;99.90;;;2.34;100.00;99461.16;5032946;28;20505;-83
2021/01/26 06:54:11;;;;;;;13.00;3.13;;;4.20;99.90;;;2.36;100.00;99458.59;5043745;28;20230;-81
2021/01/26 06:57:32;;;;;;;13.83;3.53;;;4.20;99.90;;;2.42;100.00;99476.38;5042562;28;20247;-81
2021/01/26 07:00:39;;;;;;;14.20;3.43;;;4.20;99.90;;;2.17;100.00;99493.72;5042308;28;20207;-82
2021/01/26 07:04:16;;;;;;;8.90;3.00;;;4.20;99.90;;;1.88;100.00;99505.13;5042377;28;20557;-81
2021/01/26 07:07:47;;;;;;;8.77;3.53;;;4.20;99.90;;;1.91;100.00;99517.84;5002351;28;20215;-82
2021/01/26 07:10:55;;;;;;;10.77;3.30;;;4.20;99.90;;;1.97;100.00;99527.97;5039789;28;20396;-81
2021/01/26 07:13:48;;;;;;;10.67;3.33;;;4.20;99.90;;;2.15;100.00;99532.00;5039268;28;20215;-81
2021/01/26 07:16:52;;;;;;;6.43;3.40;;;4.10;99.90;;;2.36;100.00;99538.56;5038360;28;20207;-81
2021/01/26 07:20:00;;;;;;;8.63;3.77;;;4.20;99.90;;;2.36;100.00;99546.22;5028765;28;20253;-82
2021/01/26 07:23:24;;;;;;;10.37;3.73;;;4.10;99.90;;;2.43;100.00;99546.97;5031703;28;20324;-81
2021/01/26 07:26:45;;;;;;;10.33;3.33;;;4.10;99.90;;;2.45;100.00;99556.31;5024964;28;20761;-78
2021/01/26 07:29:51;;;;;;;8.10;3.63;;;4.10;99.90;;;2.27;100.00;99567.59;5028375;28;20282;-82
2021/01/26 07:32:45;;;;;;;11.07;3.57;;;4.10;99.90;;;2.20;100.00;99581.28;5028905;28;20674;-81
2021/01/26 07:35:42;;;;;;;13.70;3.83;;;4.10;99.90;;;2.20;100.00;99577.84;5031698;28;20255;-81
2021/01/26 07:38:40;;;;;;;13.27;3.53;;;4.10;99.90;;;2.19;100.00;99578.75;5032379;28;20230;-81
2021/01/26 07:41:34;;;;;;;9.23;4.20;;;4.10;99.90;;;2.03;100.00;99591.66;5031528;28;20587;-82
2021/01/26 07:44:31;;;;;;;6.13;3.70;;;4.10;99.90;;;2.14;100.00;99585.59;5026293;28;20828;-80
2021/01/26 07:47:24;;;;;;;18.70;5.43;;;4.10;99.90;;;2.14;100.00;99596.66;5027982;28;20646;-78
2021/01/26 07:50:18;;;;;;;11.43;5.17;;;4.10;99.90;;;2.21;100.00;99602.50;5032969;28;20203;-79
2021/01/26 07:53:15;;;;;;;12.07;3.33;;;4.10;99.90;;;2.36;100.00;99610.00;5028536;28;20207;-80
2021/01/26 07:56:11;;;;;;;10.17;3.80;;;4.10;99.90;;;2.53;100.00;99614.06;5029460;28;20869;-79
2021/01/26 07:59:02;;;;;;;7.23;3.57;;;4.10;99.90;;;2.62;100.00;99613.94;5028751;28;20266;-80
2021/01/26 08:01:53;;;;;;;13.07;3.30;;;4.10;99.90;;;2.69;100.00;99623.22;5025793;28;20694;-80
2021/01/26 08:04:41;;;;;;;12.43;3.43;;;4.20;99.90;;;2.73;100.00;99631.66;5030209;28;20295;-80
2021/01/26 08:07:31;;;;;;;12.23;3.47;;;4.20;99.90;;;2.70;100.00;99637.69;5027570;28;20234;-79
2021/01/26 08:10:24;;;;;;;20.23;3.80;;;4.20;99.90;;;2.72;100.00;99646.16;5029926;28;20616;-80
2021/01/26 08:13:10;;;;;;;16.27;3.53;;;4.30;99.90;;;2.84;100.00;99646.88;5027061;28;20273;-81
2021/01/26 08:15:58;;;;;;;11.97;3.70;;;4.30;99.90;;;2.86;100.00;99645.13;5030253;28;20239;-81
2021/01/26 08:18:44;;;;;;;16.70;3.57;;;4.30;99.90;;;2.84;100.00;99654.53;5024492;28;20294;-81
2021/01/26 08:21:37;;;;;;;15.37;3.47;;;4.30;99.90;;;2.83;100.00;99673.28;5026130;28;20207;-80
2021/01/26 08:24:35;;;;;;;10.37;2.63;;;4.40;99.90;;;2.69;100.00;99689.59;5025202;28;20246;-81
2021/01/26 08:28:07;;;;;;;14.83;3.13;;;4.40;99.90;;;2.50;100.00;99737.47;5029436;28;20511;-80
2021/01/26 08:31:01;;;;;;;10.83;3.00;;;4.50;99.90;;;2.63;100.00;100160.31;5025878;28;20214;-81
2021/01/26 08:33:47;;;;;;;17.03;3.57;;;4.50;99.90;;;2.39;100.00;100587.50;5027253;28;20577;-80
2021/01/26 08:36:36;;;;;;;14.73;3.33;;;4.50;99.90;;;2.58;100.00;100965.50;5027961;28;20203;-80
2021/01/26 08:39:48;;;;;;;15.00;3.30;;;4.50;99.90;;;3.01;100.00;101200.97;5023353;28;20698;-79
2021/01/26 08:43:05;;;;;;;12.53;3.43;;;4.50;99.90;;;3.04;100.00;101555.41;5040978;28;20206;-82
2021/01/26 08:45:55;;;;;;;16.43;3.83;;;4.50;99.90;;;2.80;100.00;101559.25;5028362;28;20501;-82
2021/01/26 08:48:41;;;;;;;12.53;4.97;;;4.60;99.90;;;-146.47;100.00;66290.13;5029215;28;20223;-79
2021/01/26 08:51:27;;;;;;;14.83;3.93;;;4.60;99.90;;;-146.47;100.00;66290.13;5026670;28;20208;-81
2021/01/26 08:54:42;;;;;;;14.27;4.37;;;4.60;99.90;;;-146.47;100.00;66290.13;5028985;28;20207;-79
2021/01/26 08:57:43;;;;;;;14.57;4.00;;;4.70;99.90;;;-146.47;100.00;66290.13;5026858;28;20270;-80
2021/01/26 09:00:55;;;;;;;12.57;4.73;;;4.70;99.90;;;-146.47;100.00;66290.13;5026380;28;20650;-81
2021/01/26 09:03:43;;;;;;;12.97;4.67;;;4.80;99.90;;;-146.47;100.00;66290.13;5028355;28;20607;-81
2021/01/26 09:06:46;;;;;;;16.97;4.43;;;4.90;99.90;;;-146.47;100.00;66290.13;5024000;28;20235;-79
2021/01/26 09:09:54;;;;;;;14.23;3.97;;;4.90;99.90;;;-146.47;100.00;66290.13;5018456;28;20204;-81
2021/01/26 09:12:46;;;;;;;20.50;4.47;;;5.00;99.90;;;-146.47;100.00;66290.13;5021831;28;20223;-80
2021/01/26 09:15:34;;;;;;;10.87;3.70;;;5.10;99.90;;;-146.47;100.00;66290.13;5025880;28;20227;-81
2021/01/26 09:18:29;;;;;;;15.10;6.93;;;5.20;99.90;;;-146.47;100.00;66290.13;5023812;28;20278;-80
2021/01/26 09:21:15;;;;;;;14.70;3.47;;;5.30;99.90;;;-146.47;100.00;66290.13;5022454;28;20204;-80
2021/01/26 09:24:02;;;;;;;10.27;3.70;;;5.40;99.90;;;-146.47;100.00;66290.13;5018091;28;20207;-80
2021/01/26 09:26:48;;;;;;;12.03;2.80;;;5.50;99.90;;;-146.47;100.00;66290.13;5026533;28;20618;-80
2021/01/26 09:29:38;;;;;;;11.53;3.30;;;5.60;99.90;;;-146.47;100.00;66290.13;5026918;28;20207;-81
2021/01/26 09:32:28;;;;;;;8.07;2.57;;;5.70;99.90;;;-146.47;100.00;66290.13;5023961;28;20203;-80
2021/01/26 09:35:26;;;;;;;7.83;2.37;;;5.80;99.90;;;-146.47;100.00;66290.13;5025953;28;20331;-81
2021/01/26 09:38:30;;;;;;;12.03;3.30;;;5.90;99.90;;;-146.47;100.00;66290.13;5022663;28;20722;-81
2021/01/26 09:41:28;;;;;;;8.80;2.40;;;6.00;99.90;;;-146.47;100.00;66290.13;5024877;28;20278;-80
2021/01/26 09:44:20;;;;;;;7.43;2.40;;;6.00;99.90;;;-146.47;100.00;66290.13;5026422;28;20687;-81
2021/01/26 09:47:11;;;;;;;8.17;3.73;;;6.10;99.90;;;-146.47;100.00;66290.13;5024247;28;20251;-80
2021/01/26 09:50:17;;;;;;;9.30;2.67;;;6.10;99.90;;;-146.47;100.00;66290.13;5025646;28;20280;-81
2021/01/26 09:53:05;;;;;;;4.43;2.40;;;6.20;99.90;;;-146.47;100.00;66290.13;5025269;28;20747;-80
2021/01/26 09:55:55;;;;;;;7.03;2.77;;;6.20;99.90;;;-146.47;100.00;66290.13;5025887;28;20207;-80
2021/01/26 09:58:45;;;;;;;8.17;2.67;;;6.20;99.90;;;-146.47;100.00;66290.13;5025939;28;20667;-81
2021/01/26 10:01:33;;;;;;;9.83;2.87;;;6.40;99.90;;;-146.47;100.00;66290.13;5022103;28;20266;-80
2021/01/26 10:04:24;;;;;;;11.33;2.93;;;6.50;99.90;;;-146.47;100.00;66290.13;5023754;28;20291;-80
2021/01/26 10:07:14;;;;;;;10.50;2.73;;;6.70;99.90;;;-146.47;100.00;66290.13;5027612;28;20699;-80
2021/01/26 10:10:24;;;;;;;6.50;2.13;;;6.80;99.90;;;-146.47;100.00;66290.13;5025997;28;20208;-80
2021/01/26 10:13:38;;;;;;;7.73;2.87;;;6.90;99.90;;;-146.47;100.00;66290.13;5024755;28;20282;-83
2021/01/26 10:16:40;;;;;;;6.27;2.27;;;7.10;99.90;;;-146.47;100.00;66290.13;5022333;28;20661;-81
2021/01/26 10:19:30;;;;;;;5.87;2.40;;;7.30;99.90;;;-146.47;100.00;66290.13;5028353;28;20228;-82
2021/01/26 10:22:22;;;;;;;9.60;2.70;;;7.50;99.90;;;-146.47;100.00;66290.13;5022205;28;20294;-81
2021/01/26 10:25:11;;;;;;;5.20;1.97;;;7.70;99.90;;;-146.47;100.00;66290.13;5022355;28;20342;-82
2021/01/26 10:28:16;;;;;;;4.90;2.70;;;7.90;99.90;;;-146.47;100.00;66290.13;5023962;28;20801;-81
2021/01/26 10:31:18;;;;;;;5.10;2.50;;;8.20;99.90;;;-146.47;100.00;66290.13;5033890;28;20207;-80
2021/01/26 10:34:34;;;;;;;11.83;3.47;;;8.50;99.90;;;-146.47;100.00;66290.13;5036037;28;20218;-81
2021/01/26 10:37:34;;;;;;;8.40;2.60;;;8.70;99.90;;;-146.47;100.00;66290.13;5028409;28;20227;-80
2021/01/26 10:40:34;;;;;;;5.90;2.70;;;8.90;99.90;;;-146.47;100.00;66290.13;5028107;28;20275;-81
2021/01/26 10:43:23;;;;;;;10.43;3.03;;;9.10;99.90;;;-146.47;100.00;66290.13;5031455;28;20254;-82
2021/01/26 10:46:13;;;;;;;8.20;3.27;;;9.20;99.90;;;-146.47;100.00;66290.13;5031606;28;20215;-82
2021/01/26 10:49:12;;;;;;;6.67;3.50;;;9.30;99.90;;;-146.47;100.00;66290.13;5030373;28;20216;-82
2021/01/26 10:52:00;;;;;;;9.37;3.13;;;9.50;99.90;;;-146.47;100.00;66290.13;5030577;28;20316;-81
2021/01/26 10:54:46;;;;;;;6.73;3.27;;;9.70;99.90;;;-146.47;100.00;66290.13;5030689;28;20207;-81
2021/01/26 10:57:31;;;;;;;10.50;2.73;;;9.90;99.90;;;-146.47;100.00;66290.13;5033959;28;20231;-81
2021/01/26 11:00:22;;;;;;;5.07;2.70;;;10.10;99.90;;;-146.47;100.00;66290.13;5030366;28;20262;-81
2021/01/26 11:03:08;;;;;;;9.77;3.00;;;10.30;99.90;;;-146.47;100.00;66290.13;5024345;28;20207;-81
2021/01/26 11:05:54;;;;;;;11.50;4.70;;;10.50;99.90;;;-146.47;100.00;66290.13;5030543;28;20207;-81
2021/01/26 11:08:41;;;;;;;13.17;6.80;;;10.70;99.90;;;-146.47;100.00;66290.13;5036668;28;20243;-82
2021/01/26 11:11:29;;;;;;;9.33;2.90;;;10.90;99.90;;;-146.47;100.00;66290.13;5043170;28;20284;-82
2021/01/26 11:14:14;;;;;;;8.90;3.10;;;11.00;99.90;;;-146.47;100.00;66290.13;5034225;28;20208;-82
2021/01/26 11:16:59;;;;;;;4.40;2.73;;;11.20;99.90;;;-146.47;100.00;66290.13;5030779;28;20211;-81
2021/01/26 11:19:45;;;;;;;6.23;2.80;;;11.30;99.90;;;-146.47;100.00;66290.13;5029214;28;20259;-81
2021/01/26 11:22:33;;;;;;;12.73;3.50;;;11.40;99.90;;;-146.47;100.00;66290.13;5028837;28;20246;-82
2021/01/26 11:25:20;;;;;;;6.57;2.70;;;11.50;99.90;;;-146.47;100.00;66290.13;5024668;28;20742;-81
2021/01/26 11:28:07;;;;;;;8.17;3.00;;;11.70;99.90;;;-146.47;100.00;66290.13;5029994;28;20235;-82
2021/01/26 11:30:52;;;;;;;7.87;2.77;;;11.80;99.90;;;-146.47;100.00;66290.13;5032069;28;20200;-81
2021/01/26 11:33:38;;;;;;;5.33;2.23;;;12.00;99.90;;;-146.47;100.00;66290.13;5031424;28;20246;-81
2021/01/26 11:36:24;;;;;;;9.40;2.90;;;12.10;99.90;;;-146.47;100.00;66290.13;5028120;28;20229;-81
2021/01/26 11:39:09;;;;;;;8.50;2.77;;;12.30;99.90;;;-146.47;100.00;66290.13;5028308;28;20219;-79
2021/01/26 11:41:54;;;;;;;10.20;2.90;;;12.40;99.90;;;-146.47;100.00;66290.13;5026821;28;20687;-81
2021/01/26 11:44:39;;;;;;;8.47;2.40;;;12.50;99.90;;;-146.47;100.00;66290.13;5029997;28;20206;-81
2021/01/26 11:47:24;;;;;;;9.20;2.90;;;12.60;99.90;;;-146.47;100.00;66290.13;5030591;28;20293;-80
2021/01/26 11:50:14;;;;;;;5.17;2.53;;;12.80;99.90;;;-146.47;100.00;66290.13;5029066;28;20206;-82
2021/01/26 11:53:00;;;;;;;8.03;3.10;;;12.90;99.90;;;-146.47;100.00;66290.13;5028391;28;20239;-81
2021/01/26 11:55:45;;;;;;;10.93;2.63;;;12.90;99.90;;;-146.47;100.00;66290.13;5030880;28;20290;-81
2021/01/26 11:58:31;;;;;;;7.87;3.00;;;12.90;99.90;;;-146.47;100.00;66290.13;5025969;28;20734;-81
2021/01/26 12:01:17;;;;;;;5.10;2.53;;;12.80;99.90;;;-146.47;100.00;66290.13;5027077;28;20203;-80
2021/01/26 12:04:02;;;;;;;6.43;2.50;;;12.70;99.90;;;-146.47;100.00;66290.13;5028320;28;20239;-79
2021/01/26 12:06:47;;;;;;;4.73;2.50;;;12.60;99.90;;;-146.47;100.00;66290.13;5028885;28;20695;-79
2021/01/26 12:09:34;;;;;;;7.93;3.00;;;12.40;99.90;;;-146.47;100.00;66290.13;5027568;28;20259;-80
2021/01/26 12:12:19;;;;;;;5.00;2.43;;;12.30;99.90;;;-146.47;100.00;66290.13;5026649;28;20219;-81